sensor_id;sensor_type;location;lat;lon;timestamp;temperature;humidity
1137;DHT22;557;48.466;7.950;2023-06-24T00:01:54;17.80;99.90
1137;DHT22;557;48.466;7.950;2023-06-24T00:04:43;17.70;99.90
1137;DHT22;557;48.466;7.950;2023-06-24T00:07:31;17.60;99.90
1137;DHT22;557;48.466;7.950;2023-06-24T00:10:18;17.60;1.00
1137;DHT22;557;48.466;7.950;2023-06-24T00:13:05;17.50;99.90
1137;DHT22;557;48.466;7.950;2023-06-24T00:15:53;17.40;1.00
1137;DHT22;557;48.466;7.950;2023-06-24T00:18:40;17.40;1.00
1137;DHT22;557;48.466;7.950;2023-06-24T00:21:29;17.20;1.00
1137;DHT22;557;48.466;7.950;2023-06-24T00:24:17;17.10;1.00
1137;DHT22;557;48.466;7.950;2023-06-24T00:27:06;17.10;1.00
1137;DHT22;557;48.466;7.950;2023-06-24T00:29:53;17.10;1.00
1137;DHT22;557;48.466;7.950;2023-06-24T00:32:41;17.10;1.00
1137;DHT22;557;48.466;7.950;2023-06-24T00:35:28;17.00;1.00
1137;DHT22;557;48.466;7.950;2023-06-24T00:38:17;17.10;1.00
1137;DHT22;557;48.466;7.950;2023-06-24T00:41:04;17.00;1.00
1137;DHT22;557;48.466;7.950;2023-06-24T00:43:52;17.00;1.00
1137;DHT22;557;48.466;7.950;2023-06-24T00:46:40;16.90;1.00
1137;DHT22;557;48.466;7.950;2023-06-24T00:49:27;16.90;1.00
1137;DHT22;557;48.466;7.950;2023-06-24T00:52:14;16.90;1.00
1137;DHT22;557;48.466;7.950;2023-06-24T00:55:04;16.90;1.00
1137;DHT22;557;48.466;7.950;2023-06-24T00:57:53;16.80;1.00
1137;DHT22;557;48.466;7.950;2023-06-24T01:00:40;16.80;1.00
1137;DHT22;557;48.466;7.950;2023-06-24T01:03:28;16.70;1.00
1137;DHT22;557;48.466;7.950;2023-06-24T01:06:16;16.80;1.00
1137;DHT22;557;48.466;7.950;2023-06-24T01:09:04;16.80;1.00
1137;DHT22;557;48.466;7.950;2023-06-24T01:11:53;16.80;1.00
1137;DHT22;557;48.466;7.950;2023-06-24T01:14:41;16.70;1.00
1137;DHT22;557;48.466;7.950;2023-06-24T01:17:33;16.80;1.00
1137;DHT22;557;48.466;7.950;2023-06-24T01:20:27;16.70;1.00
1137;DHT22;557;48.466;7.950;2023-06-24T01:23:42;16.70;1.00
1137;DHT22;557;48.466;7.950;2023-06-24T01:33:38;16.60;1.00
1137;DHT22;557;48.466;7.950;2023-06-24T01:36:28;16.50;1.00
1137;DHT22;557;48.466;7.950;2023-06-24T01:39:18;16.40;1.00
1137;DHT22;557;48.466;7.950;2023-06-24T01:42:11;16.30;1.00
1137;DHT22;557;48.466;7.950;2023-06-24T01:45:01;16.20;4.70
1137;DHT22;557;48.466;7.950;2023-06-24T01:47:49;16.10;19.50
1137;DHT22;557;48.466;7.950;2023-06-24T01:50:53;16.10;1.00
1137;DHT22;557;48.466;7.950;2023-06-24T01:53:44;16.20;1.00
1137;DHT22;557;48.466;7.950;2023-06-24T01:56:33;16.20;1.00
1137;DHT22;557;48.466;7.950;2023-06-24T01:59:23;16.30;1.00
1137;DHT22;557;48.466;7.950;2023-06-24T02:02:12;16.20;1.00
1137;DHT22;557;48.466;7.950;2023-06-24T02:05:01;16.10;1.00
1137;DHT22;557;48.466;7.950;2023-06-24T02:07:52;16.10;1.00
1137;DHT22;557;48.466;7.950;2023-06-24T02:10:40;16.10;1.00
1137;DHT22;557;48.466;7.950;2023-06-24T02:13:29;16.10;1.00
1137;DHT22;557;48.466;7.950;2023-06-24T02:16:19;16.10;1.00
1137;DHT22;557;48.466;7.950;2023-06-24T02:19:08;16.10;1.00
1137;DHT22;557;48.466;7.950;2023-06-24T02:21:57;16.10;1.00
1137;DHT22;557;48.466;7.950;2023-06-24T02:24:47;16.10;1.00
1137;DHT22;557;48.466;7.950;2023-06-24T02:27:36;16.10;1.00
1137;DHT22;557;48.466;7.950;2023-06-24T02:30:25;16.10;1.00
1137;DHT22;557;48.466;7.950;2023-06-24T02:33:12;16.10;25.50
1137;DHT22;557;48.466;7.950;2023-06-24T02:35:59;16.10;8.00
1137;DHT22;557;48.466;7.950;2023-06-24T02:38:47;16.00;1.00
1137;DHT22;557;48.466;7.950;2023-06-24T02:41:36;16.00;1.00
1137;DHT22;557;48.466;7.950;2023-06-24T02:44:24;15.90;1.00
1137;DHT22;557;48.466;7.950;2023-06-24T02:47:12;15.90;1.00
1137;DHT22;557;48.466;7.950;2023-06-24T02:50:02;15.90;1.00
1137;DHT22;557;48.466;7.950;2023-06-24T02:52:51;15.90;1.00
1137;DHT22;557;48.466;7.950;2023-06-24T02:55:40;15.80;1.00
1137;DHT22;557;48.466;7.950;2023-06-24T02:58:29;15.80;1.00
1137;DHT22;557;48.466;7.950;2023-06-24T03:01:17;15.80;1.80
1137;DHT22;557;48.466;7.950;2023-06-24T03:04:10;15.80;14.80
1137;DHT22;557;48.466;7.950;2023-06-24T03:06:57;15.80;1.00
1137;DHT22;557;48.466;7.950;2023-06-24T03:09:46;15.80;1.00
1137;DHT22;557;48.466;7.950;2023-06-24T03:12:33;15.90;1.00
1137;DHT22;557;48.466;7.950;2023-06-24T03:15:22;15.90;16.80
1137;DHT22;557;48.466;7.950;2023-06-24T03:18:09;16.00;1.00
1137;DHT22;557;48.466;7.950;2023-06-24T03:20:57;16.00;1.00
1137;DHT22;557;48.466;7.950;2023-06-24T03:23:44;15.90;1.00
1137;DHT22;557;48.466;7.950;2023-06-24T03:26:32;16.00;1.00
1137;DHT22;557;48.466;7.950;2023-06-24T03:29:20;15.90;1.00
1137;DHT22;557;48.466;7.950;2023-06-24T03:32:09;16.00;1.00
1137;DHT22;557;48.466;7.950;2023-06-24T03:34:56;16.00;1.00
1137;DHT22;557;48.466;7.950;2023-06-24T03:37:43;16.00;1.00
1137;DHT22;557;48.466;7.950;2023-06-24T03:40:31;16.00;1.00
1137;DHT22;557;48.466;7.950;2023-06-24T03:43:18;16.00;1.00
1137;DHT22;557;48.466;7.950;2023-06-24T03:46:05;15.90;1.00
1137;DHT22;557;48.466;7.950;2023-06-24T03:48:54;15.80;1.00
1137;DHT22;557;48.466;7.950;2023-06-24T03:51:41;15.80;1.00
1137;DHT22;557;48.466;7.950;2023-06-24T03:54:29;15.80;1.00
1137;DHT22;557;48.466;7.950;2023-06-24T03:57:17;15.80;1.00
1137;DHT22;557;48.466;7.950;2023-06-24T04:00:05;15.70;1.00
1137;DHT22;557;48.466;7.950;2023-06-24T04:02:59;15.70;1.00
1137;DHT22;557;48.466;7.950;2023-06-24T04:05:48;15.70;1.00
1137;DHT22;557;48.466;7.950;2023-06-24T04:08:35;15.60;1.00
1137;DHT22;557;48.466;7.950;2023-06-24T04:11:25;15.60;1.00
1137;DHT22;557;48.466;7.950;2023-06-24T04:14:12;15.50;1.00
1137;DHT22;557;48.466;7.950;2023-06-24T04:17:00;15.50;1.00
1137;DHT22;557;48.466;7.950;2023-06-24T04:19:48;15.50;1.90
1137;DHT22;557;48.466;7.950;2023-06-24T04:22:38;15.50;1.90
1137;DHT22;557;48.466;7.950;2023-06-24T04:25:26;15.50;1.00
1137;DHT22;557;48.466;7.950;2023-06-24T04:28:13;15.50;4.60
1137;DHT22;557;48.466;7.950;2023-06-24T04:31:01;15.40;19.10
1137;DHT22;557;48.466;7.950;2023-06-24T04:33:48;15.40;36.00
1137;DHT22;557;48.466;7.950;2023-06-24T04:36:35;15.40;33.40
1137;DHT22;557;48.466;7.950;2023-06-24T04:39:24;15.40;41.30
1137;DHT22;557;48.466;7.950;2023-06-24T04:42:11;15.40;44.70
1137;DHT22;557;48.466;7.950;2023-06-24T04:45:00;15.50;27.00
1137;DHT22;557;48.466;7.950;2023-06-24T04:47:52;15.60;2.00
1137;DHT22;557;48.466;7.950;2023-06-24T04:50:39;15.80;1.00
1137;DHT22;557;48.466;7.950;2023-06-24T04:53:26;15.90;1.00
1137;DHT22;557;48.466;7.950;2023-06-24T04:56:15;16.00;1.00
1137;DHT22;557;48.466;7.950;2023-06-24T04:59:02;16.10;1.00
1137;DHT22;557;48.466;7.950;2023-06-24T05:01:50;16.20;1.00
1137;DHT22;557;48.466;7.950;2023-06-24T05:04:37;16.30;1.00
1137;DHT22;557;48.466;7.950;2023-06-24T05:07:24;16.40;1.00
1137;DHT22;557;48.466;7.950;2023-06-24T05:10:12;16.50;1.00
1137;DHT22;557;48.466;7.950;2023-06-24T05:13:00;16.70;1.00
1137;DHT22;557;48.466;7.950;2023-06-24T05:15:48;16.80;1.00
1137;DHT22;557;48.466;7.950;2023-06-24T05:18:35;16.90;1.00
1137;DHT22;557;48.466;7.950;2023-06-24T05:21:22;17.00;1.00
1137;DHT22;557;48.466;7.950;2023-06-24T05:24:09;17.10;99.90
1137;DHT22;557;48.466;7.950;2023-06-24T05:27:03;17.20;99.90
1137;DHT22;557;48.466;7.950;2023-06-24T05:29:52;17.30;99.90
1137;DHT22;557;48.466;7.950;2023-06-24T05:32:40;17.50;99.90
1137;DHT22;557;48.466;7.950;2023-06-24T05:35:27;17.70;99.90
1137;DHT22;557;48.466;7.950;2023-06-24T05:38:14;17.90;1.00
1137;DHT22;557;48.466;7.950;2023-06-24T05:41:01;18.00;1.00
1137;DHT22;557;48.466;7.950;2023-06-24T05:43:49;18.20;99.90
1137;DHT22;557;48.466;7.950;2023-06-24T05:46:38;18.30;1.00
1137;DHT22;557;48.466;7.950;2023-06-24T05:49:25;18.50;1.00
1137;DHT22;557;48.466;7.950;2023-06-24T05:52:12;18.70;1.00
1137;DHT22;557;48.466;7.950;2023-06-24T05:55:00;18.90;99.90
1137;DHT22;557;48.466;7.950;2023-06-24T05:57:47;19.00;1.00
1137;DHT22;557;48.466;7.950;2023-06-24T06:00:35;19.20;1.00
1137;DHT22;557;48.466;7.950;2023-06-24T06:03:23;19.30;99.90
1137;DHT22;557;48.466;7.950;2023-06-24T06:06:11;19.30;1.00
1137;DHT22;557;48.466;7.950;2023-06-24T06:08:59;19.20;1.00
1137;DHT22;557;48.466;7.950;2023-06-24T06:11:46;19.40;99.90
1137;DHT22;557;48.466;7.950;2023-06-24T06:14:34;19.30;71.10
1137;DHT22;557;48.466;7.950;2023-06-24T06:17:21;19.30;1.00
1137;DHT22;557;48.466;7.950;2023-06-24T06:20:11;19.20;99.90
1137;DHT22;557;48.466;7.950;2023-06-24T06:22:58;19.20;1.00
1137;DHT22;557;48.466;7.950;2023-06-24T06:25:46;19.30;1.00
1137;DHT22;557;48.466;7.950;2023-06-24T06:28:33;19.60;99.90
1137;DHT22;557;48.466;7.950;2023-06-24T06:31:20;19.70;1.00
1137;DHT22;557;48.466;7.950;2023-06-24T06:34:08;19.80;99.90
1137;DHT22;557;48.466;7.950;2023-06-24T06:36:57;20.00;1.00
1137;DHT22;557;48.466;7.950;2023-06-24T06:39:44;20.10;99.90
1137;DHT22;557;48.466;7.950;2023-06-24T06:42:32;20.20;99.90
1137;DHT22;557;48.466;7.950;2023-06-24T06:45:19;20.40;1.00
1137;DHT22;557;48.466;7.950;2023-06-24T06:48:06;20.60;1.00
1137;DHT22;557;48.466;7.950;2023-06-24T06:50:54;20.60;1.00
1137;DHT22;557;48.466;7.950;2023-06-24T06:53:44;20.70;1.00
1137;DHT22;557;48.466;7.950;2023-06-24T06:56:31;20.70;1.00
1137;DHT22;557;48.466;7.950;2023-06-24T06:59:18;20.90;99.90
1137;DHT22;557;48.466;7.950;2023-06-24T07:02:06;21.20;74.50
1137;DHT22;557;48.466;7.950;2023-06-24T07:04:53;21.40;1.00
1137;DHT22;557;48.466;7.950;2023-06-24T07:07:41;21.40;99.90
1137;DHT22;557;48.466;7.950;2023-06-24T07:10:31;21.20;99.90
1137;DHT22;557;48.466;7.950;2023-06-24T07:13:18;21.30;99.90
1137;DHT22;557;48.466;7.950;2023-06-24T07:16:06;21.50;1.00
1137;DHT22;557;48.466;7.950;2023-06-24T07:18:55;21.90;1.00
1137;DHT22;557;48.466;7.950;2023-06-24T07:21:42;22.20;99.90
1137;DHT22;557;48.466;7.950;2023-06-24T07:24:30;22.30;99.90
1137;DHT22;557;48.466;7.950;2023-06-24T07:27:18;22.20;99.90
1137;DHT22;557;48.466;7.950;2023-06-24T07:30:06;22.20;99.90
1137;DHT22;557;48.466;7.950;2023-06-24T07:32:54;22.30;99.90
1137;DHT22;557;48.466;7.950;2023-06-24T07:35:42;22.20;99.90
1137;DHT22;557;48.466;7.950;2023-06-24T07:38:29;22.30;99.90
1137;DHT22;557;48.466;7.950;2023-06-24T07:41:16;22.60;99.90
1137;DHT22;557;48.466;7.950;2023-06-24T07:44:05;23.10;99.90
1137;DHT22;557;48.466;7.950;2023-06-24T07:46:52;23.40;99.90
1137;DHT22;557;48.466;7.950;2023-06-24T07:49:40;23.70;99.90
1137;DHT22;557;48.466;7.950;2023-06-24T07:52:27;24.10;99.90
1137;DHT22;557;48.466;7.950;2023-06-24T07:55:14;24.40;99.90
1137;DHT22;557;48.466;7.950;2023-06-24T07:58:02;24.90;99.90
1137;DHT22;557;48.466;7.950;2023-06-24T08:00:52;24.90;99.90
1137;DHT22;557;48.466;7.950;2023-06-24T08:03:39;25.10;99.90
1137;DHT22;557;48.466;7.950;2023-06-24T08:06:26;25.30;98.40
1137;DHT22;557;48.466;7.950;2023-06-24T08:09:15;25.30;94.20
1137;DHT22;557;48.466;7.950;2023-06-24T08:12:04;25.10;84.00
1137;DHT22;557;48.466;7.950;2023-06-24T08:14:52;25.30;79.40
1137;DHT22;557;48.466;7.950;2023-06-24T08:17:40;25.70;90.20
1137;DHT22;557;48.466;7.950;2023-06-24T08:20:30;26.10;82.00
1137;DHT22;557;48.466;7.950;2023-06-24T08:23:17;26.40;75.20
1137;DHT22;557;48.466;7.950;2023-06-24T08:26:05;26.70;67.70
1137;DHT22;557;48.466;7.950;2023-06-24T08:28:53;26.80;40.60
1137;DHT22;557;48.466;7.950;2023-06-24T08:31:40;26.60;36.00
1137;DHT22;557;48.466;7.950;2023-06-24T08:34:29;26.70;37.20
1137;DHT22;557;48.466;7.950;2023-06-24T08:37:16;26.70;24.70
1137;DHT22;557;48.466;7.950;2023-06-24T08:40:05;26.60;27.70
1137;DHT22;557;48.466;7.950;2023-06-24T08:42:52;26.80;25.50
1137;DHT22;557;48.466;7.950;2023-06-24T08:45:40;27.20;29.50
1137;DHT22;557;48.466;7.950;2023-06-24T08:48:30;27.50;26.70
1137;DHT22;557;48.466;7.950;2023-06-24T08:51:20;27.70;22.10
1137;DHT22;557;48.466;7.950;2023-06-24T08:54:11;27.90;22.30
1137;DHT22;557;48.466;7.950;2023-06-24T08:57:00;27.90;16.80
1137;DHT22;557;48.466;7.950;2023-06-24T08:59:51;28.00;14.00
1137;DHT22;557;48.466;7.950;2023-06-24T09:02:39;28.10;9.70
1137;DHT22;557;48.466;7.950;2023-06-24T09:05:26;27.90;11.70
1137;DHT22;557;48.466;7.950;2023-06-24T09:08:16;28.10;7.90
1137;DHT22;557;48.466;7.950;2023-06-24T09:11:04;28.20;9.90
1137;DHT22;557;48.466;7.950;2023-06-24T09:13:54;28.40;8.30
1137;DHT22;557;48.466;7.950;2023-06-24T09:16:51;28.40;1.70
1137;DHT22;557;48.466;7.950;2023-06-24T09:19:39;27.70;1.00
1137;DHT22;557;48.466;7.950;2023-06-24T09:22:28;27.70;5.10
1137;DHT22;557;48.466;7.950;2023-06-24T09:36:21;29.00;1.00
1137;DHT22;557;48.466;7.950;2023-06-24T09:39:11;28.90;1.00
1137;DHT22;557;48.466;7.950;2023-06-24T09:41:59;28.90;1.00
1137;DHT22;557;48.466;7.950;2023-06-24T09:44:53;28.80;1.00
1137;DHT22;557;48.466;7.950;2023-06-24T09:47:40;28.90;1.00
1137;DHT22;557;48.466;7.950;2023-06-24T09:50:28;29.00;1.00
1137;DHT22;557;48.466;7.950;2023-06-24T09:53:18;29.10;1.00
1137;DHT22;557;48.466;7.950;2023-06-24T09:56:07;29.20;1.00
1137;DHT22;557;48.466;7.950;2023-06-24T09:58:55;28.80;1.00
1137;DHT22;557;48.466;7.950;2023-06-24T10:01:44;28.60;1.00
1137;DHT22;557;48.466;7.950;2023-06-24T10:04:31;29.00;1.00
1137;DHT22;557;48.466;7.950;2023-06-24T10:07:19;29.50;1.00
1137;DHT22;557;48.466;7.950;2023-06-24T10:10:09;29.80;1.00
1137;DHT22;557;48.466;7.950;2023-06-24T10:12:57;30.00;1.00
1137;DHT22;557;48.466;7.950;2023-06-24T10:15:45;30.10;1.00
1137;DHT22;557;48.466;7.950;2023-06-24T10:18:33;29.80;1.00
1137;DHT22;557;48.466;7.950;2023-06-24T10:21:21;30.10;1.00
1137;DHT22;557;48.466;7.950;2023-06-24T10:24:10;29.90;1.00
1137;DHT22;557;48.466;7.950;2023-06-24T10:27:07;30.20;1.00
1137;DHT22;557;48.466;7.950;2023-06-24T10:29:55;30.70;1.00
1137;DHT22;557;48.466;7.950;2023-06-24T10:32:51;30.90;1.00
1137;DHT22;557;48.466;7.950;2023-06-24T10:35:42;31.30;1.00
1137;DHT22;557;48.466;7.950;2023-06-24T10:38:30;31.20;1.00
1137;DHT22;557;48.466;7.950;2023-06-24T10:41:20;31.40;1.00
1137;DHT22;557;48.466;7.950;2023-06-24T10:44:17;31.50;1.00
1137;DHT22;557;48.466;7.950;2023-06-24T10:47:04;31.50;1.00
1137;DHT22;557;48.466;7.950;2023-06-24T10:49:52;31.50;1.00
1137;DHT22;557;48.466;7.950;2023-06-24T10:52:41;31.70;1.00
1137;DHT22;557;48.466;7.950;2023-06-24T10:55:29;31.70;1.00
1137;DHT22;557;48.466;7.950;2023-06-24T10:58:17;31.70;1.00
1137;DHT22;557;48.466;7.950;2023-06-24T11:01:11;31.70;1.00
1137;DHT22;557;48.466;7.950;2023-06-24T11:04:05;31.50;1.00
1137;DHT22;557;48.466;7.950;2023-06-24T11:06:58;31.60;1.00
1137;DHT22;557;48.466;7.950;2023-06-24T11:09:49;31.80;1.00
1137;DHT22;557;48.466;7.950;2023-06-24T11:12:38;32.20;1.00
1137;DHT22;557;48.466;7.950;2023-06-24T11:15:26;32.30;1.00
1137;DHT22;557;48.466;7.950;2023-06-24T11:18:15;32.10;1.00
1137;DHT22;557;48.466;7.950;2023-06-24T11:21:02;32.40;1.00
1137;DHT22;557;48.466;7.950;2023-06-24T11:23:52;32.60;1.00
1137;DHT22;557;48.466;7.950;2023-06-24T11:26:39;32.80;1.00
1137;DHT22;557;48.466;7.950;2023-06-24T11:29:29;32.50;1.00
1137;DHT22;557;48.466;7.950;2023-06-24T11:32:16;32.40;1.00
1137;DHT22;557;48.466;7.950;2023-06-24T11:35:07;32.40;1.00
1137;DHT22;557;48.466;7.950;2023-06-24T11:37:58;32.40;1.00
1137;DHT22;557;48.466;7.950;2023-06-24T11:40:48;32.60;1.00
1137;DHT22;557;48.466;7.950;2023-06-24T11:43:35;32.80;1.00
1137;DHT22;557;48.466;7.950;2023-06-24T11:46:24;33.00;1.00
1137;DHT22;557;48.466;7.950;2023-06-24T11:49:12;33.30;1.00
1137;DHT22;557;48.466;7.950;2023-06-24T11:52:01;33.40;1.00
1137;DHT22;557;48.466;7.950;2023-06-24T11:54:51;33.30;1.00
1137;DHT22;557;48.466;7.950;2023-06-24T11:57:52;33.40;1.00
1137;DHT22;557;48.466;7.950;2023-06-24T12:00:41;33.60;1.00
1137;DHT22;557;48.466;7.950;2023-06-24T12:03:29;33.80;1.00
1137;DHT22;557;48.466;7.950;2023-06-24T12:06:19;33.80;1.00
1137;DHT22;557;48.466;7.950;2023-06-24T12:09:09;34.00;1.00
1137;DHT22;557;48.466;7.950;2023-06-24T12:11:56;34.10;1.00
1137;DHT22;557;48.466;7.950;2023-06-24T12:14:43;34.30;1.00
1137;DHT22;557;48.466;7.950;2023-06-24T12:17:31;34.00;1.00
1137;DHT22;557;48.466;7.950;2023-06-24T12:20:18;34.10;1.00
1137;DHT22;557;48.466;7.950;2023-06-24T12:23:05;34.20;1.00
1137;DHT22;557;48.466;7.950;2023-06-24T12:25:54;34.40;1.00
1137;DHT22;557;48.466;7.950;2023-06-24T12:28:41;34.40;1.00
1137;DHT22;557;48.466;7.950;2023-06-24T12:31:29;34.70;1.00
1137;DHT22;557;48.466;7.950;2023-06-24T12:34:16;34.80;1.00
1137;DHT22;557;48.466;7.950;2023-06-24T12:37:05;34.80;1.00
1137;DHT22;557;48.466;7.950;2023-06-24T12:39:53;34.70;1.00
1137;DHT22;557;48.466;7.950;2023-06-24T12:42:42;35.00;1.00
1137;DHT22;557;48.466;7.950;2023-06-24T12:45:29;34.90;1.00
1137;DHT22;557;48.466;7.950;2023-06-24T12:48:17;35.10;1.00
1137;DHT22;557;48.466;7.950;2023-06-24T12:51:05;35.40;1.00
1137;DHT22;557;48.466;7.950;2023-06-24T12:53:52;35.40;1.00
1137;DHT22;557;48.466;7.950;2023-06-24T12:56:43;35.40;1.00
1137;DHT22;557;48.466;7.950;2023-06-24T12:59:32;35.60;1.00
1137;DHT22;557;48.466;7.950;2023-06-24T13:02:19;35.80;1.00
1137;DHT22;557;48.466;7.950;2023-06-24T13:05:07;35.70;1.00
1137;DHT22;557;48.466;7.950;2023-06-24T13:07:54;35.50;1.00
1137;DHT22;557;48.466;7.950;2023-06-24T13:10:42;35.40;1.00
1137;DHT22;557;48.466;7.950;2023-06-24T13:13:31;35.10;1.00
1137;DHT22;557;48.466;7.950;2023-06-24T13:16:20;35.10;1.00
1137;DHT22;557;48.466;7.950;2023-06-24T13:19:07;35.00;1.00
1137;DHT22;557;48.466;7.950;2023-06-24T13:21:57;34.90;1.00
1137;DHT22;557;48.466;7.950;2023-06-24T13:24:49;34.70;1.00
1137;DHT22;557;48.466;7.950;2023-06-24T13:27:36;34.60;1.00
1137;DHT22;557;48.466;7.950;2023-06-24T13:30:23;34.60;1.00
1137;DHT22;557;48.466;7.950;2023-06-24T13:33:12;34.70;1.00
1137;DHT22;557;48.466;7.950;2023-06-24T13:35:59;34.60;1.00
1137;DHT22;557;48.466;7.950;2023-06-24T13:38:48;34.60;1.00
1137;DHT22;557;48.466;7.950;2023-06-24T13:41:35;34.80;1.00
1137;DHT22;557;48.466;7.950;2023-06-24T13:44:23;34.80;1.00
1137;DHT22;557;48.466;7.950;2023-06-24T13:47:10;34.80;1.00
1137;DHT22;557;48.466;7.950;2023-06-24T13:50:00;34.80;1.00
1137;DHT22;557;48.466;7.950;2023-06-24T13:52:47;34.90;1.00
1137;DHT22;557;48.466;7.950;2023-06-24T13:55:37;34.60;1.00
1137;DHT22;557;48.466;7.950;2023-06-24T13:58:25;34.30;1.00
1137;DHT22;557;48.466;7.950;2023-06-24T14:01:12;34.40;1.00
1137;DHT22;557;48.466;7.950;2023-06-24T14:03:59;34.30;1.00
1137;DHT22;557;48.466;7.950;2023-06-24T14:06:48;34.20;1.00
1137;DHT22;557;48.466;7.950;2023-06-24T14:09:37;34.20;1.00
1137;DHT22;557;48.466;7.950;2023-06-24T14:12:24;34.00;1.00
1137;DHT22;557;48.466;7.950;2023-06-24T14:15:12;34.20;1.00
1137;DHT22;557;48.466;7.950;2023-06-24T14:17:59;34.20;1.00
1137;DHT22;557;48.466;7.950;2023-06-24T14:20:46;34.20;1.00
1137;DHT22;557;48.466;7.950;2023-06-24T14:23:36;34.30;1.00
1137;DHT22;557;48.466;7.950;2023-06-24T14:26:23;34.50;1.00
1137;DHT22;557;48.466;7.950;2023-06-24T14:29:11;34.70;1.00
1137;DHT22;557;48.466;7.950;2023-06-24T14:31:58;34.80;1.00
1137;DHT22;557;48.466;7.950;2023-06-24T14:34:45;34.80;1.00
1137;DHT22;557;48.466;7.950;2023-06-24T14:37:34;35.00;1.00
1137;DHT22;557;48.466;7.950;2023-06-24T14:40:26;35.30;1.00
1137;DHT22;557;48.466;7.950;2023-06-24T14:43:14;35.70;1.00
1137;DHT22;557;48.466;7.950;2023-06-24T14:46:01;35.80;1.00
1137;DHT22;557;48.466;7.950;2023-06-24T14:48:49;35.80;1.00
1137;DHT22;557;48.466;7.950;2023-06-24T14:51:36;35.80;1.00
1137;DHT22;557;48.466;7.950;2023-06-24T14:54:23;35.80;1.00
1137;DHT22;557;48.466;7.950;2023-06-24T14:57:12;36.00;1.00
1137;DHT22;557;48.466;7.950;2023-06-24T15:00:02;36.00;1.00
1137;DHT22;557;48.466;7.950;2023-06-24T15:02:49;36.10;1.00
1137;DHT22;557;48.466;7.950;2023-06-24T15:05:36;36.10;1.00
1137;DHT22;557;48.466;7.950;2023-06-24T15:08:25;36.00;1.00
1137;DHT22;557;48.466;7.950;2023-06-24T15:11:21;35.70;1.00
1137;DHT22;557;48.466;7.950;2023-06-24T15:14:10;35.50;1.00
1137;DHT22;557;48.466;7.950;2023-06-24T15:16:57;35.40;1.00
1137;DHT22;557;48.466;7.950;2023-06-24T15:19:44;35.40;1.00
1137;DHT22;557;48.466;7.950;2023-06-24T15:22:32;35.20;1.00
1137;DHT22;557;48.466;7.950;2023-06-24T15:25:19;35.20;1.00
1137;DHT22;557;48.466;7.950;2023-06-24T15:28:06;35.40;1.00
1137;DHT22;557;48.466;7.950;2023-06-24T15:30:55;35.30;1.00
1137;DHT22;557;48.466;7.950;2023-06-24T15:33:42;35.30;1.00
1137;DHT22;557;48.466;7.950;2023-06-24T15:36:31;35.10;1.00
1137;DHT22;557;48.466;7.950;2023-06-24T15:39:18;35.10;1.00
1137;DHT22;557;48.466;7.950;2023-06-24T15:42:06;35.20;1.00
1137;DHT22;557;48.466;7.950;2023-06-24T15:44:53;35.20;1.00
1137;DHT22;557;48.466;7.950;2023-06-24T15:47:42;35.10;1.00
1137;DHT22;557;48.466;7.950;2023-06-24T15:50:29;35.30;1.00
1137;DHT22;557;48.466;7.950;2023-06-24T15:53:16;35.60;1.00
1137;DHT22;557;48.466;7.950;2023-06-24T15:56:04;35.90;1.00
1137;DHT22;557;48.466;7.950;2023-06-24T15:58:51;36.30;1.00
1137;DHT22;557;48.466;7.950;2023-06-24T16:01:38;36.70;1.00
1137;DHT22;557;48.466;7.950;2023-06-24T16:04:28;36.80;1.00
1137;DHT22;557;48.466;7.950;2023-06-24T16:07:17;36.50;1.00
1137;DHT22;557;48.466;7.950;2023-06-24T16:10:06;36.10;1.00
1137;DHT22;557;48.466;7.950;2023-06-24T16:12:53;35.20;1.00
1137;DHT22;557;48.466;7.950;2023-06-24T16:15:41;33.90;1.00
1137;DHT22;557;48.466;7.950;2023-06-24T16:18:28;33.00;1.00
1137;DHT22;557;48.466;7.950;2023-06-24T16:21:17;32.50;1.00
1137;DHT22;557;48.466;7.950;2023-06-24T16:24:05;32.10;1.00
1137;DHT22;557;48.466;7.950;2023-06-24T16:26:52;31.80;1.00
1137;DHT22;557;48.466;7.950;2023-06-24T16:29:39;31.60;1.00
1137;DHT22;557;48.466;7.950;2023-06-24T16:32:27;31.60;1.00
1137;DHT22;557;48.466;7.950;2023-06-24T16:35:14;31.40;1.00
1137;DHT22;557;48.466;7.950;2023-06-24T16:38:03;31.20;1.00
1137;DHT22;557;48.466;7.950;2023-06-24T16:40:50;31.00;1.00
1137;DHT22;557;48.466;7.950;2023-06-24T16:43:37;30.80;1.00
1137;DHT22;557;48.466;7.950;2023-06-24T16:46:25;30.50;1.00
1137;DHT22;557;48.466;7.950;2023-06-24T16:49:12;30.20;1.00
1137;DHT22;557;48.466;7.950;2023-06-24T16:51:59;30.00;1.00
1137;DHT22;557;48.466;7.950;2023-06-24T16:54:48;29.90;1.00
1137;DHT22;557;48.466;7.950;2023-06-24T16:57:35;29.80;1.00
1137;DHT22;557;48.466;7.950;2023-06-24T17:00:23;29.80;1.00
1137;DHT22;557;48.466;7.950;2023-06-24T17:03:10;29.70;1.00
1137;DHT22;557;48.466;7.950;2023-06-24T17:05:57;29.70;1.00
1137;DHT22;557;48.466;7.950;2023-06-24T17:08:45;29.60;1.00
1137;DHT22;557;48.466;7.950;2023-06-24T17:11:33;29.50;1.00
1137;DHT22;557;48.466;7.950;2023-06-24T17:14:21;29.50;1.00
1137;DHT22;557;48.466;7.950;2023-06-24T17:17:08;29.50;1.00
1137;DHT22;557;48.466;7.950;2023-06-24T17:19:55;29.50;1.00
1137;DHT22;557;48.466;7.950;2023-06-24T17:22:43;29.40;1.00
1137;DHT22;557;48.466;7.950;2023-06-24T17:25:30;29.20;1.00
1137;DHT22;557;48.466;7.950;2023-06-24T17:28:19;29.10;1.00
1137;DHT22;557;48.466;7.950;2023-06-24T17:31:06;29.00;1.00
1137;DHT22;557;48.466;7.950;2023-06-24T17:33:54;28.90;1.00
1137;DHT22;557;48.466;7.950;2023-06-24T17:36:41;28.90;1.00
1137;DHT22;557;48.466;7.950;2023-06-24T17:39:28;28.80;1.00
1137;DHT22;557;48.466;7.950;2023-06-24T17:42:17;28.70;1.00
1137;DHT22;557;48.466;7.950;2023-06-24T17:45:08;28.60;1.00
1137;DHT22;557;48.466;7.950;2023-06-24T17:47:55;28.50;1.00
1137;DHT22;557;48.466;7.950;2023-06-24T17:50:42;28.30;1.00
1137;DHT22;557;48.466;7.950;2023-06-24T17:53:30;28.30;1.00
1137;DHT22;557;48.466;7.950;2023-06-24T17:56:18;28.10;1.00
1137;DHT22;557;48.466;7.950;2023-06-24T17:59:07;28.10;1.00
1137;DHT22;557;48.466;7.950;2023-06-24T18:01:56;28.10;1.00
1137;DHT22;557;48.466;7.950;2023-06-24T18:04:43;28.00;1.00
1137;DHT22;557;48.466;7.950;2023-06-24T18:07:31;27.90;1.00
1137;DHT22;557;48.466;7.950;2023-06-24T18:10:18;27.80;1.00
1137;DHT22;557;48.466;7.950;2023-06-24T18:13:06;27.70;1.00
1137;DHT22;557;48.466;7.950;2023-06-24T18:15:53;27.70;1.00
1137;DHT22;557;48.466;7.950;2023-06-24T18:18:43;27.60;1.00
1137;DHT22;557;48.466;7.950;2023-06-24T18:21:30;27.50;1.00
1137;DHT22;557;48.466;7.950;2023-06-24T18:24:18;27.30;1.00
1137;DHT22;557;48.466;7.950;2023-06-24T18:27:06;27.20;1.00
1137;DHT22;557;48.466;7.950;2023-06-24T18:29:54;27.10;1.00
1137;DHT22;557;48.466;7.950;2023-06-24T18:32:41;27.00;1.00
1137;DHT22;557;48.466;7.950;2023-06-24T18:35:30;27.00;1.00
1137;DHT22;557;48.466;7.950;2023-06-24T18:38:17;26.90;1.00
1137;DHT22;557;48.466;7.950;2023-06-24T18:41:04;26.80;1.00
1137;DHT22;557;48.466;7.950;2023-06-24T18:43:52;26.70;1.00
1137;DHT22;557;48.466;7.950;2023-06-24T18:46:39;26.60;1.00
1137;DHT22;557;48.466;7.950;2023-06-24T18:49:27;26.50;1.00
1137;DHT22;557;48.466;7.950;2023-06-24T18:52:16;26.40;1.00
1137;DHT22;557;48.466;7.950;2023-06-24T18:55:03;26.30;1.00
1137;DHT22;557;48.466;7.950;2023-06-24T18:57:50;26.30;1.00
1137;DHT22;557;48.466;7.950;2023-06-24T19:00:38;26.20;1.00
1137;DHT22;557;48.466;7.950;2023-06-24T19:03:27;26.10;1.00
1137;DHT22;557;48.466;7.950;2023-06-24T19:06:14;26.00;1.00
1137;DHT22;557;48.466;7.950;2023-06-24T19:09:03;25.90;1.00
1137;DHT22;557;48.466;7.950;2023-06-24T19:11:50;25.70;1.00